Schauwetter-Station
Messdaten von gestern: Stunden-Extremwerte

Minima und Maxima
06.08.20Sensoren
ZeitTA200TA020RH200WV250WD250GR000TS005TS020AP150TS050RAIN LW100LW100LW100
00:00 11.4... 11.9 11.5... 12.0 99.9... 99.9 0.0... 0.0 0.0... 0.0 9990.0... 9990.0 20.0... 20.3 20.9... 20.9 966.1... 966.2 20.5... 20.6 0.0... 0.0 0.0... 0.0 0.0... 0.0 0.0... 0.0
01:00 11.0... 11.4 11.1... 11.6 99.9... 99.9 0.0... 0.7 0.0... 349.8 9990.0... 9990.0 19.7... 20.0 20.8... 20.9 966.1... 966.3 20.6... 20.6 0.0... 0.0 0.0... 0.0 0.0... 0.0 0.0... 0.0
02:00 10.9... 11.1 11.0... 11.3 99.9... 99.9 0.0... 0.0 0.0... 0.0 9990.0... 9990.0 19.5... 19.8 20.8... 20.8 966.0... 966.3 20.6... 20.6 0.0... 0.0 0.0... 100.0 0.0... 0.0 0.0... 0.0
03:00 10.7... 11.2 10.8... 11.1 99.9... 99.9 0.0... 0.0 0.0... 0.0 9990.0... 9990.0 19.3... 19.5 20.7... 20.8 966.2... 966.4 20.6... 20.6 0.0... 0.0 100.0... 100.0 0.0... 0.0 0.0... 0.0
04:00 10.9... 11.2 10.8... 11.1 99.9... 99.9 0.0... 0.0 0.0... 0.0 9990.0... 9990.0 19.1... 19.3 20.6... 20.7 966.4... 966.6 20.6... 20.6 0.0... 0.0 100.0... 100.0 0.0... 0.0 0.0... 0.0
05:00 11.0... 12.9 10.9... 12.5 99.9... 99.9 0.0... 0.0 0.0... 0.0 9990.0... 9990.0 18.9... 19.1 20.5... 20.6 966.4... 966.7 20.6... 20.6 0.0... 0.0 100.0... 100.0 0.0... 0.0 0.0... 0.0
06:00 12.9... 16.3 12.4... 15.4 79.6... 99.9 0.0... 2.4 0.0... 87.8 9990.0... 9990.0 18.8... 18.9 20.4... 20.5 966.7... 967.1 20.6... 20.6 0.0... 0.0 100.0... 100.0 0.0... 0.0 0.0... 0.0
07:00 16.2... 18.7 15.4... 19.4 67.8... 80.1 0.0... 3.2 0.0... 140.4 9990.0... 9990.0 18.8... 18.8 20.3... 20.4 967.1... 967.5 20.5... 20.6 0.0... 0.0 0.0... 100.0 0.0... 0.0 0.0... 0.0
08:00 18.6... 21.0 19.3... 22.6 60.7... 69.1 0.0... 4.4 0.0... 139.6 9990.0... 9990.0 18.8... 19.2 20.2... 20.3 967.3... 967.7 20.5... 20.6 0.0... 0.0 0.0... 0.0 0.0... 0.0 0.0... 0.0
09:00 20.3... 22.4 21.6... 24.3 53.6... 62.5 0.0... 4.5 15.2... 135.4 9990.0... 9990.0 19.1... 19.8 20.2... 20.2 967.6... 967.8 20.5... 20.5 0.0... 0.0 0.0... 0.0 0.0... 0.0 0.0... 0.0
10:00 22.0... 23.7 23.4... 25.7 48.7... 55.8 0.0... 4.9 7.7... 145.4 9990.0... 9990.0 19.8... 20.2 20.1... 20.2 967.6... 967.8 20.5... 20.5 0.0... 0.0 0.0... 0.0 0.0... 0.0 0.0... 0.0
11:00 23.3... 24.8 24.5... 26.5 44.8... 49.2 0.0... 5.1 67.7... 130.5 9990.0... 9990.0 20.2... 20.9 20.1... 20.2 967.5... 967.7 20.5... 20.5 0.0... 0.0 0.0... 0.0 0.0... 0.0 0.0... 0.0
12:00 23.6... 25.7 24.8... 27.3 42.1... 47.0 0.0... 5.0 30.2... 133.0 9990.0... 9990.0 20.9... 21.7 20.2... 20.3 967.2... 967.5 20.5... 20.5 0.0... 0.0 0.0... 0.0 0.0... 0.0 0.0... 0.0
13:00 25.0... 26.4 26.1... 28.0 40.3... 43.0 0.0... 4.5 17.0... 140.5 9990.0... 9990.0 21.7... 22.6 20.2... 20.4 967.0... 967.3 20.5... 20.5 0.0... 0.0 0.0... 0.0 0.0... 0.0 0.0... 0.0
14:00 25.8... 27.2 26.5... 28.5 39.0... 41.7 0.0... 4.7 37.7... 143.0 9990.0... 9990.0 22.6... 23.3 20.4... 20.6 966.8... 967.1 20.5... 20.5 0.0... 0.0 0.0... 0.0 0.0... 0.0 0.0... 0.0
15:00 26.0... 27.4 26.7... 28.2 38.6... 40.4 0.0... 4.3 70.4... 125.4 9990.0... 9990.0 23.3... 23.7 20.6... 20.8 966.5... 966.9 20.4... 20.5 0.0... 0.0 0.0... 0.0 0.0... 0.0 0.0... 0.0
16:00 26.1... 27.2 26.4... 28.0 38.6... 40.8 0.0... 4.1 57.7... 122.9 9990.0... 9990.0 23.7... 24.0 20.8... 21.0 966.4... 966.6 20.4... 20.5 0.0... 0.0 0.0... 0.0 0.0... 0.0 0.0... 0.0
17:00 25.9... 26.8 25.0... 27.4 39.4... 41.7 0.0... 5.1 0.0... 140.6 9990.0... 9990.0 24.0... 24.0 21.0... 21.2 966.4... 966.6 20.4... 20.4 0.0... 0.0 0.0... 0.0 0.0... 0.0 0.0... 0.0
18:00 24.4... 25.9 22.9... 25.2 41.2... 47.9 0.0... 3.0 82.8... 140.5 9990.0... 9990.0 23.6... 24.0 21.2... 21.4 966.5... 966.8 20.4... 20.4 0.0... 0.0 0.0... 0.0 0.0... 0.0 0.0... 0.0
19:00 19.8... 24.5 19.5... 23.0 46.5... 87.3 0.0... 1.1 0.0... 122.9 9990.0... 9990.0 23.2... 23.6 21.4... 21.5 966.8... 967.2 20.4... 20.5 0.0... 0.0 0.0... 0.0 0.0... 0.0 0.0... 0.0
20:00 17.8... 19.8 17.3... 19.6 87.2... 99.9 0.0... 0.5 0.0... 349.9 9990.0... 9990.0 22.9... 23.3 21.5... 21.6 967.2... 967.6 20.4... 20.5 0.0... 0.0 0.0... 100.0 0.0... 0.0 0.0... 0.0
21:00 16.6... 17.9 16.3... 17.3 99.9... 99.9 0.0... 0.4 0.0... 310.0 9990.0... 9990.0 22.5... 22.9 21.6... 21.6 967.6... 967.9 20.5... 20.5 0.0... 0.0 100.0... 100.0 0.0... 0.0 0.0... 0.0
22:00 16.1... 16.6 15.8... 16.4 99.9... 99.9 0.0... 1.0 0.0... 347.3 9990.0... 9990.0 22.1... 22.5 21.6... 21.7 967.8... 967.9 20.5... 20.5 0.0... 0.0 100.0... 100.0 0.0... 0.0 0.0... 0.0
23:00 15.4... 16.1 15.1... 16.0 99.9... 99.9 0.0... 0.4 0.0... 322.3 9990.0... 9990.0 21.8... 22.2 21.6... 21.6 967.6... 967.9 20.5... 20.5 0.0... 0.0 100.0... 100.0 0.0... 0.0 0.0... 0.0

Legende: Sensoren an Station 2
KurzbezeichnungBeschreibung
TA200Lufttemperatur in 2 m Höhe [°C] (fehlerhaft, Lüfter defekt)
TA020Lufttemperatur in 0,2 m Höhe [°C] (fehlerhaft, Lüfter defekt)
RH200Relative Luftfeuchte in 2 m Höhe [%]
WV250Windgeschwindigkeit in 2,5 m Höhe [m/s]
WD250Windrichtung in 2,5 m Höhe [0 ° =N, 90 ° =O]
GR000Globalstrahlung in 2 m Höhe (z.Z. defekt) [W/m²]
TS005Bodentemperatur in 5 cm Tiefe [°C]
TS020Bodentemperatur in 20 cm Tiefe [°C]
AP150Athmosphärischer Luftdruck [hPa]
TS050Bodentemperatur in 50 cm Tiefe [°C]
RAIN Niederschlag [mm]
LW100Blattnässe [trocken = 0%]
LW100Blattnässe 1 im Obstbaum [trocken = 0%] (nicht angeschlossen)
LW100Blattnässe 2 im Obstbaum [trocken = 0%] (nicht angeschlossen)